createdAt,value
2018-12-30T00:01:26.924Z,2.20
2018-12-30T00:03:55.966Z,3.00
2018-12-30T00:06:25.470Z,3.00
2018-12-30T00:08:54.844Z,2.20
2018-12-30T00:11:24.055Z,2.00
2018-12-30T00:13:53.147Z,1.00
2018-12-30T00:16:22.390Z,1.60
2018-12-30T00:18:51.595Z,1.60
2018-12-30T00:21:20.745Z,1.00
2018-12-30T00:23:49.918Z,1.20
2018-12-30T00:26:19.083Z,1.00
2018-12-30T00:28:49.272Z,1.80
2018-12-30T00:31:18.765Z,1.00
2018-12-30T00:33:48.062Z,1.00
2018-12-30T00:36:17.148Z,1.00
2018-12-30T00:38:46.346Z,2.40
2018-12-30T00:41:15.535Z,2.00
2018-12-30T00:43:44.966Z,1.00
2018-12-30T00:46:14.045Z,3.20
2018-12-30T00:48:43.095Z,2.20
2018-12-30T00:51:16.927Z,1.60
2018-12-30T00:53:42.881Z,1.00
2018-12-30T00:56:12.081Z,1.60
2018-12-30T00:58:41.165Z,1.60
2018-12-30T01:01:10.398Z,1.00
2018-12-30T01:03:39.715Z,1.20
2018-12-30T01:06:08.874Z,1.00
2018-12-30T01:08:38.015Z,0.60
2018-12-30T01:11:07.359Z,1.00
2018-12-30T01:13:36.424Z,1.20
2018-12-30T01:16:05.499Z,0.20
2018-12-30T01:18:34.575Z,1.40
2018-12-30T01:21:03.721Z,1.00
2018-12-30T01:23:32.903Z,2.00
2018-12-30T01:26:01.945Z,2.00
2018-12-30T01:28:31.111Z,2.20
2018-12-30T01:31:00.498Z,2.20
2018-12-30T01:33:29.562Z,1.00
2018-12-30T01:35:59.409Z,2.00
2018-12-30T01:38:28.595Z,1.00
2018-12-30T01:40:57.632Z,1.60
2018-12-30T01:43:26.746Z,2.60
2018-12-30T01:45:55.944Z,1.80
2018-12-30T01:48:25.132Z,1.60
2018-12-30T01:50:54.435Z,1.00
2018-12-30T01:53:23.774Z,1.80
2018-12-30T01:55:52.960Z,0.00
2018-12-30T01:58:22.494Z,1.00
2018-12-30T02:00:51.581Z,1.00
2018-12-30T02:03:20.958Z,1.00
2018-12-30T02:05:50.031Z,6.20
2018-12-30T02:08:19.169Z,40.50
2018-12-30T02:10:48.152Z,34.75
2018-12-30T02:13:17.024Z,110.00
2018-12-30T02:15:46.187Z,195.25
2018-12-30T02:18:15.079Z,253.75
2018-12-30T02:20:43.923Z,278.25
2018-12-30T02:23:12.758Z,340.80
2018-12-30T02:25:41.642Z,366.00
2018-12-30T02:28:10.896Z,382.00
2018-12-30T02:30:39.826Z,406.40
2018-12-30T02:33:09.076Z,398.40
2018-12-30T02:35:37.938Z,393.60
2018-12-30T02:38:07.168Z,416.60
2018-12-30T02:40:36.499Z,439.67
2018-12-30T02:43:05.404Z,418.60
2018-12-30T02:45:34.281Z,436.00
2018-12-30T02:48:03.172Z,438.20
2018-12-30T02:50:32.069Z,424.80
2018-12-30T02:53:01.007Z,423.40
2018-12-30T02:55:30.071Z,414.60
2018-12-30T02:57:58.964Z,396.00
2018-12-30T03:00:28.164Z,365.50
2018-12-30T03:02:57.011Z,365.50
2018-12-30T03:05:25.874Z,360.00
2018-12-30T03:07:54.707Z,358.00
2018-12-30T03:10:23.661Z,352.40
2018-12-30T03:12:52.712Z,335.80
2018-12-30T03:15:21.570Z,337.80
2018-12-30T03:17:50.433Z,325.00
2018-12-30T03:20:19.295Z,317.20
2018-12-30T03:22:48.157Z,313.40
2018-12-30T03:25:17.018Z,305.80
2018-12-30T03:27:45.896Z,291.00
2018-12-30T03:30:14.746Z,283.75
2018-12-30T03:32:43.585Z,289.75
2018-12-30T03:35:12.580Z,273.25
2018-12-30T03:37:41.437Z,269.50
2018-12-30T03:40:10.758Z,272.25
2018-12-30T03:42:39.602Z,250.50
2018-12-30T03:45:08.676Z,246.50
2018-12-30T03:47:37.538Z,236.25
2018-12-30T03:50:06.840Z,238.25
2018-12-30T03:52:35.705Z,234.75
2018-12-30T03:55:04.559Z,235.75
2018-12-30T03:57:33.417Z,214.50
2018-12-30T04:00:04.328Z,225.75
2018-12-30T04:02:34.292Z,219.25
2018-12-30T04:05:03.139Z,220.00
2018-12-30T04:07:31.967Z,212.25
2018-12-30T04:10:00.833Z,208.50
2018-12-30T04:12:30.122Z,199.25
2018-12-30T04:14:59.126Z,197.25
2018-12-30T04:17:28.366Z,193.50
2018-12-30T04:19:57.212Z,182.75
2018-12-30T04:22:26.062Z,196.00
2018-12-30T04:24:54.945Z,192.25
2018-12-30T04:27:24.111Z,186.50
2018-12-30T04:29:53.001Z,177.50
2018-12-30T04:32:21.894Z,185.75
2018-12-30T04:34:50.760Z,173.75
2018-12-30T04:37:19.628Z,170.75
2018-12-30T04:39:48.498Z,164.75
2018-12-30T04:42:17.555Z,165.75
2018-12-30T04:44:46.713Z,166.75
2018-12-30T04:47:15.747Z,158.25
2018-12-30T04:49:44.786Z,151.50
2018-12-30T04:52:13.660Z,153.00
2018-12-30T04:54:42.544Z,151.25
2018-12-30T04:57:11.395Z,150.75
2018-12-30T04:59:40.269Z,144.00
2018-12-30T05:02:09.163Z,141.00
2018-12-30T05:04:38.033Z,139.75
2018-12-30T05:07:06.873Z,127.25
2018-12-30T05:09:35.750Z,126.25
2018-12-30T05:12:04.598Z,128.75
2018-12-30T05:14:33.462Z,120.25
2018-12-30T05:17:02.352Z,120.50
2018-12-30T05:19:31.799Z,117.50
2018-12-30T05:22:00.803Z,125.50
2018-12-30T05:24:29.670Z,110.50
2018-12-30T05:26:58.503Z,111.50
2018-12-30T05:29:27.794Z,111.50
2018-12-30T05:31:56.665Z,112.75
2018-12-30T05:34:25.516Z,113.75
2018-12-30T05:36:54.368Z,104.25
2018-12-30T05:39:23.231Z,107.50
2018-12-30T05:41:52.046Z,108.25
2018-12-30T05:44:21.240Z,102.75
2018-12-30T05:46:50.089Z,102.50
2018-12-30T05:49:19.115Z,92.00
2018-12-30T05:51:47.948Z,100.50
2018-12-30T05:54:16.964Z,97.25
2018-12-30T05:56:45.827Z,101.00
2018-12-30T05:59:14.656Z,92.75
2018-12-30T06:01:43.508Z,100.50
2018-12-30T06:04:12.359Z,95.50
2018-12-30T06:06:41.193Z,94.50
2018-12-30T06:09:10.066Z,89.75
2018-12-30T06:11:38.926Z,90.50
2018-12-30T06:14:07.767Z,92.75
2018-12-30T06:16:36.634Z,91.50
2018-12-30T06:19:05.487Z,85.00
2018-12-30T06:21:34.336Z,84.25
2018-12-30T06:24:03.221Z,86.00
2018-12-30T06:26:32.250Z,85.75
2018-12-30T06:29:01.103Z,83.75
2018-12-30T06:31:29.975Z,82.75
2018-12-30T06:33:59.194Z,81.25
2018-12-30T06:36:28.050Z,82.00
2018-12-30T06:38:56.930Z,77.00
2018-12-30T06:41:25.788Z,63.00
2018-12-30T06:43:54.641Z,62.00
2018-12-30T06:46:23.862Z,55.75
2018-12-30T06:48:52.684Z,48.00
2018-12-30T06:51:21.723Z,48.75
2018-12-30T06:53:50.598Z,49.00
2018-12-30T06:56:20.078Z,47.00
2018-12-30T06:58:49.085Z,48.75
2018-12-30T07:01:17.985Z,48.00
2018-12-30T07:03:47.283Z,47.75
2018-12-30T07:06:16.147Z,46.50
